sensor_id;sensor_type;location;lat;lon;timestamp;temperature;humidity
40153;DHT22;26371;56.992;23.912;2022-11-25T00:01:33;0.00;99.90
40153;DHT22;26371;56.992;23.912;2022-11-25T00:04:02;0.00;99.90
40153;DHT22;26371;56.992;23.912;2022-11-25T00:06:32;0.00;99.90
40153;DHT22;26371;56.992;23.912;2022-11-25T00:09:03;0.00;99.90
40153;DHT22;26371;56.992;23.912;2022-11-25T00:11:35;0.00;99.90
40153;DHT22;26371;56.992;23.912;2022-11-25T00:14:04;0.00;99.90
40153;DHT22;26371;56.992;23.912;2022-11-25T00:16:33;0.00;99.90
40153;DHT22;26371;56.992;23.912;2022-11-25T00:19:02;0.00;99.90
40153;DHT22;26371;56.992;23.912;2022-11-25T00:21:32;0.00;99.90
40153;DHT22;26371;56.992;23.912;2022-11-25T00:24:02;0.00;99.90
40153;DHT22;26371;56.992;23.912;2022-11-25T00:26:33;0.00;99.90
40153;DHT22;26371;56.992;23.912;2022-11-25T00:29:06;0.00;99.90
40153;DHT22;26371;56.992;23.912;2022-11-25T00:31:36;-0.10;99.90
40153;DHT22;26371;56.992;23.912;2022-11-25T00:34:05;0.00;99.90
40153;DHT22;26371;56.992;23.912;2022-11-25T00:36:35;0.00;99.90
40153;DHT22;26371;56.992;23.912;2022-11-25T00:39:06;-0.10;99.90
40153;DHT22;26371;56.992;23.912;2022-11-25T00:41:35;-0.10;99.90
40153;DHT22;26371;56.992;23.912;2022-11-25T00:44:22;0.00;99.90
40153;DHT22;26371;56.992;23.912;2022-11-25T00:47:07;0.00;99.90
40153;DHT22;26371;56.992;23.912;2022-11-25T00:49:36;0.00;99.90
40153;DHT22;26371;56.992;23.912;2022-11-25T00:52:06;0.00;99.90
40153;DHT22;26371;56.992;23.912;2022-11-25T00:54:35;0.00;99.90
40153;DHT22;26371;56.992;23.912;2022-11-25T00:57:04;0.00;99.90
40153;DHT22;26371;56.992;23.912;2022-11-25T00:59:34;0.00;99.90
40153;DHT22;26371;56.992;23.912;2022-11-25T01:02:03;0.00;99.90
40153;DHT22;26371;56.992;23.912;2022-11-25T01:04:31;0.00;99.90
40153;DHT22;26371;56.992;23.912;2022-11-25T01:07:01;0.00;99.90
40153;DHT22;26371;56.992;23.912;2022-11-25T01:09:29;0.00;99.90
40153;DHT22;26371;56.992;23.912;2022-11-25T01:11:58;0.00;99.90
40153;DHT22;26371;56.992;23.912;2022-11-25T01:14:29;0.00;99.90
40153;DHT22;26371;56.992;23.912;2022-11-25T01:17:00;0.00;99.90
40153;DHT22;26371;56.992;23.912;2022-11-25T01:19:31;-0.10;99.90
40153;DHT22;26371;56.992;23.912;2022-11-25T01:22:00;0.00;99.90
40153;DHT22;26371;56.992;23.912;2022-11-25T01:24:28;0.00;99.90
40153;DHT22;26371;56.992;23.912;2022-11-25T01:26:57;0.00;99.90
40153;DHT22;26371;56.992;23.912;2022-11-25T01:29:26;0.00;99.90
40153;DHT22;26371;56.992;23.912;2022-11-25T01:31:55;0.10;99.90
40153;DHT22;26371;56.992;23.912;2022-11-25T01:34:26;0.00;99.90
40153;DHT22;26371;56.992;23.912;2022-11-25T01:36:58;0.00;99.90
40153;DHT22;26371;56.992;23.912;2022-11-25T01:39:26;0.00;99.90
40153;DHT22;26371;56.992;23.912;2022-11-25T01:41:59;0.00;99.90
40153;DHT22;26371;56.992;23.912;2022-11-25T01:44:30;0.00;99.90
40153;DHT22;26371;56.992;23.912;2022-11-25T01:47:05;0.10;99.90
40153;DHT22;26371;56.992;23.912;2022-11-25T01:49:42;0.10;99.90
40153;DHT22;26371;56.992;23.912;2022-11-25T01:52:16;0.10;99.90
40153;DHT22;26371;56.992;23.912;2022-11-25T01:54:49;0.10;99.90
40153;DHT22;26371;56.992;23.912;2022-11-25T01:57:25;0.00;99.90
40153;DHT22;26371;56.992;23.912;2022-11-25T01:59:57;0.00;99.90
40153;DHT22;26371;56.992;23.912;2022-11-25T02:02:30;0.00;99.90
40153;DHT22;26371;56.992;23.912;2022-11-25T02:05:00;0.00;99.90
40153;DHT22;26371;56.992;23.912;2022-11-25T02:07:34;0.00;99.90
40153;DHT22;26371;56.992;23.912;2022-11-25T02:10:06;0.10;99.90
40153;DHT22;26371;56.992;23.912;2022-11-25T02:12:38;0.00;99.90
40153;DHT22;26371;56.992;23.912;2022-11-25T02:15:08;0.00;99.90
40153;DHT22;26371;56.992;23.912;2022-11-25T02:17:37;0.00;99.90
40153;DHT22;26371;56.992;23.912;2022-11-25T02:20:09;0.00;99.90
40153;DHT22;26371;56.992;23.912;2022-11-25T02:22:51;0.00;99.90
40153;DHT22;26371;56.992;23.912;2022-11-25T02:25:23;0.00;99.90
40153;DHT22;26371;56.992;23.912;2022-11-25T02:27:55;0.00;99.90
40153;DHT22;26371;56.992;23.912;2022-11-25T02:30:25;0.00;99.90
40153;DHT22;26371;56.992;23.912;2022-11-25T02:32:54;0.00;99.90
40153;DHT22;26371;56.992;23.912;2022-11-25T02:35:28;0.00;99.90
40153;DHT22;26371;56.992;23.912;2022-11-25T02:38:01;0.10;99.90
40153;DHT22;26371;56.992;23.912;2022-11-25T02:40:35;0.10;99.90
40153;DHT22;26371;56.992;23.912;2022-11-25T02:43:04;0.10;99.90
40153;DHT22;26371;56.992;23.912;2022-11-25T02:45:52;0.10;99.90
40153;DHT22;26371;56.992;23.912;2022-11-25T02:48:23;0.10;99.90
40153;DHT22;26371;56.992;23.912;2022-11-25T02:51:15;0.10;99.90
40153;DHT22;26371;56.992;23.912;2022-11-25T02:53:46;0.10;99.90
40153;DHT22;26371;56.992;23.912;2022-11-25T02:56:20;0.10;99.90
40153;DHT22;26371;56.992;23.912;2022-11-25T02:58:49;0.10;99.90
40153;DHT22;26371;56.992;23.912;2022-11-25T03:01:17;0.10;99.90
40153;DHT22;26371;56.992;23.912;2022-11-25T03:03:49;0.10;99.90
40153;DHT22;26371;56.992;23.912;2022-11-25T03:06:17;0.10;99.90
40153;DHT22;26371;56.992;23.912;2022-11-25T03:08:47;0.10;99.90
40153;DHT22;26371;56.992;23.912;2022-11-25T03:11:17;0.10;99.90
40153;DHT22;26371;56.992;23.912;2022-11-25T03:13:46;0.10;99.90
40153;DHT22;26371;56.992;23.912;2022-11-25T03:16:14;0.10;99.90
40153;DHT22;26371;56.992;23.912;2022-11-25T03:18:43;0.10;99.90
40153;DHT22;26371;56.992;23.912;2022-11-25T03:21:14;0.10;99.90
40153;DHT22;26371;56.992;23.912;2022-11-25T03:23:43;0.10;99.90
40153;DHT22;26371;56.992;23.912;2022-11-25T03:26:11;0.10;99.90
40153;DHT22;26371;56.992;23.912;2022-11-25T03:28:48;0.10;99.90
40153;DHT22;26371;56.992;23.912;2022-11-25T03:31:31;0.10;99.90
40153;DHT22;26371;56.992;23.912;2022-11-25T03:34:10;0.10;99.90
40153;DHT22;26371;56.992;23.912;2022-11-25T03:36:39;0.10;99.90
40153;DHT22;26371;56.992;23.912;2022-11-25T03:39:09;0.10;99.90
40153;DHT22;26371;56.992;23.912;2022-11-25T03:41:37;0.10;99.90
40153;DHT22;26371;56.992;23.912;2022-11-25T03:44:07;0.10;99.90
40153;DHT22;26371;56.992;23.912;2022-11-25T03:46:38;0.10;99.90
40153;DHT22;26371;56.992;23.912;2022-11-25T03:49:06;0.10;99.90
40153;DHT22;26371;56.992;23.912;2022-11-25T03:51:35;0.10;99.90
40153;DHT22;26371;56.992;23.912;2022-11-25T03:54:04;0.10;99.90
40153;DHT22;26371;56.992;23.912;2022-11-25T03:56:52;0.10;99.90
40153;DHT22;26371;56.992;23.912;2022-11-25T03:59:23;0.10;99.90
40153;DHT22;26371;56.992;23.912;2022-11-25T04:01:52;0.10;99.90
40153;DHT22;26371;56.992;23.912;2022-11-25T04:04:22;0.10;99.90
40153;DHT22;26371;56.992;23.912;2022-11-25T04:06:51;0.10;99.90
40153;DHT22;26371;56.992;23.912;2022-11-25T04:09:21;0.10;99.90
40153;DHT22;26371;56.992;23.912;2022-11-25T04:11:53;0.00;99.90
40153;DHT22;26371;56.992;23.912;2022-11-25T04:14:54;0.00;99.90
40153;DHT22;26371;56.992;23.912;2022-11-25T04:17:22;0.00;99.90
40153;DHT22;26371;56.992;23.912;2022-11-25T04:19:51;0.00;99.90
40153;DHT22;26371;56.992;23.912;2022-11-25T04:22:20;0.00;99.90
40153;DHT22;26371;56.992;23.912;2022-11-25T04:24:49;0.00;99.90
40153;DHT22;26371;56.992;23.912;2022-11-25T04:27:23;0.00;99.90
40153;DHT22;26371;56.992;23.912;2022-11-25T04:29:54;0.00;99.90
40153;DHT22;26371;56.992;23.912;2022-11-25T04:32:23;0.00;99.90
40153;DHT22;26371;56.992;23.912;2022-11-25T04:34:52;0.00;99.90
40153;DHT22;26371;56.992;23.912;2022-11-25T04:37:21;0.00;99.90
40153;DHT22;26371;56.992;23.912;2022-11-25T04:39:50;0.00;99.90
40153;DHT22;26371;56.992;23.912;2022-11-25T04:42:19;0.00;99.90
40153;DHT22;26371;56.992;23.912;2022-11-25T04:45:08;0.00;99.90
40153;DHT22;26371;56.992;23.912;2022-11-25T04:47:54;0.00;99.90
40153;DHT22;26371;56.992;23.912;2022-11-25T04:50:23;0.00;99.90
40153;DHT22;26371;56.992;23.912;2022-11-25T04:53:03;0.00;99.90
40153;DHT22;26371;56.992;23.912;2022-11-25T04:55:31;0.00;99.90
40153;DHT22;26371;56.992;23.912;2022-11-25T04:58:04;0.00;99.90
40153;DHT22;26371;56.992;23.912;2022-11-25T05:00:35;0.00;99.90
40153;DHT22;26371;56.992;23.912;2022-11-25T05:03:05;0.00;99.90
40153;DHT22;26371;56.992;23.912;2022-11-25T05:05:37;0.00;99.90
40153;DHT22;26371;56.992;23.912;2022-11-25T05:08:06;0.00;99.90
40153;DHT22;26371;56.992;23.912;2022-11-25T05:10:35;0.00;99.90
40153;DHT22;26371;56.992;23.912;2022-11-25T05:13:03;0.00;99.90
40153;DHT22;26371;56.992;23.912;2022-11-25T05:15:32;0.00;99.90
40153;DHT22;26371;56.992;23.912;2022-11-25T05:18:06;0.00;99.90
40153;DHT22;26371;56.992;23.912;2022-11-25T05:20:42;0.00;99.90
40153;DHT22;26371;56.992;23.912;2022-11-25T05:23:14;0.00;99.90
40153;DHT22;26371;56.992;23.912;2022-11-25T05:25:43;-0.10;99.90
40153;DHT22;26371;56.992;23.912;2022-11-25T05:28:43;0.00;99.90
40153;DHT22;26371;56.992;23.912;2022-11-25T05:31:13;-0.10;99.90
40153;DHT22;26371;56.992;23.912;2022-11-25T05:33:44;-0.10;99.90
40153;DHT22;26371;56.992;23.912;2022-11-25T05:36:14;-0.10;99.90
40153;DHT22;26371;56.992;23.912;2022-11-25T05:38:45;0.00;99.90
40153;DHT22;26371;56.992;23.912;2022-11-25T05:41:19;-0.10;99.90
40153;DHT22;26371;56.992;23.912;2022-11-25T05:43:50;0.00;99.90
40153;DHT22;26371;56.992;23.912;2022-11-25T05:46:19;0.00;99.90
40153;DHT22;26371;56.992;23.912;2022-11-25T05:48:54;0.00;99.90
40153;DHT22;26371;56.992;23.912;2022-11-25T05:51:23;0.00;99.90
40153;DHT22;26371;56.992;23.912;2022-11-25T05:53:54;0.00;99.90
40153;DHT22;26371;56.992;23.912;2022-11-25T05:56:27;0.00;99.90
40153;DHT22;26371;56.992;23.912;2022-11-25T05:59:08;0.00;99.90
40153;DHT22;26371;56.992;23.912;2022-11-25T06:01:51;0.00;99.90
40153;DHT22;26371;56.992;23.912;2022-11-25T06:04:22;0.00;99.90
40153;DHT22;26371;56.992;23.912;2022-11-25T06:06:50;0.00;99.90
40153;DHT22;26371;56.992;23.912;2022-11-25T06:09:19;0.00;99.90
40153;DHT22;26371;56.992;23.912;2022-11-25T06:11:49;0.00;99.90
40153;DHT22;26371;56.992;23.912;2022-11-25T06:14:17;0.00;99.90
40153;DHT22;26371;56.992;23.912;2022-11-25T06:16:48;0.00;99.90
40153;DHT22;26371;56.992;23.912;2022-11-25T06:19:33;0.00;99.90
40153;DHT22;26371;56.992;23.912;2022-11-25T06:22:02;0.00;99.90
40153;DHT22;26371;56.992;23.912;2022-11-25T06:24:30;0.00;99.90
40153;DHT22;26371;56.992;23.912;2022-11-25T06:27:04;0.00;99.90
40153;DHT22;26371;56.992;23.912;2022-11-25T06:29:33;0.00;99.90
40153;DHT22;26371;56.992;23.912;2022-11-25T06:32:02;-0.10;99.90
40153;DHT22;26371;56.992;23.912;2022-11-25T06:35:02;-0.10;99.90
40153;DHT22;26371;56.992;23.912;2022-11-25T06:37:46;-0.10;99.90
40153;DHT22;26371;56.992;23.912;2022-11-25T06:40:15;-0.10;99.90
40153;DHT22;26371;56.992;23.912;2022-11-25T06:42:44;-0.10;99.90
40153;DHT22;26371;56.992;23.912;2022-11-25T06:45:12;-0.10;99.90
40153;DHT22;26371;56.992;23.912;2022-11-25T06:47:41;-0.10;99.90
40153;DHT22;26371;56.992;23.912;2022-11-25T06:50:11;-0.10;99.90
40153;DHT22;26371;56.992;23.912;2022-11-25T06:52:40;-0.10;99.90
40153;DHT22;26371;56.992;23.912;2022-11-25T06:55:09;-0.10;99.90
40153;DHT22;26371;56.992;23.912;2022-11-25T06:57:37;0.00;99.90
40153;DHT22;26371;56.992;23.912;2022-11-25T07:00:07;-0.10;99.90
40153;DHT22;26371;56.992;23.912;2022-11-25T07:02:35;0.00;99.90
40153;DHT22;26371;56.992;23.912;2022-11-25T07:05:12;-0.10;99.90
40153;DHT22;26371;56.992;23.912;2022-11-25T07:07:41;0.00;99.90
40153;DHT22;26371;56.992;23.912;2022-11-25T07:10:10;0.00;99.90
40153;DHT22;26371;56.992;23.912;2022-11-25T07:12:39;-0.10;99.90
40153;DHT22;26371;56.992;23.912;2022-11-25T07:15:08;0.00;99.90
40153;DHT22;26371;56.992;23.912;2022-11-25T07:17:38;0.00;99.90
40153;DHT22;26371;56.992;23.912;2022-11-25T07:20:07;0.00;99.90
40153;DHT22;26371;56.992;23.912;2022-11-25T07:22:37;0.00;99.90
40153;DHT22;26371;56.992;23.912;2022-11-25T07:25:07;0.00;99.90
40153;DHT22;26371;56.992;23.912;2022-11-25T07:27:36;0.10;99.90
40153;DHT22;26371;56.992;23.912;2022-11-25T07:30:06;0.10;99.90
40153;DHT22;26371;56.992;23.912;2022-11-25T07:32:55;0.00;99.90
40153;DHT22;26371;56.992;23.912;2022-11-25T07:35:23;0.10;99.90
40153;DHT22;26371;56.992;23.912;2022-11-25T07:37:53;0.10;99.90
40153;DHT22;26371;56.992;23.912;2022-11-25T07:40:22;0.10;99.90
40153;DHT22;26371;56.992;23.912;2022-11-25T07:42:51;0.20;99.90
40153;DHT22;26371;56.992;23.912;2022-11-25T07:45:20;0.20;99.90
40153;DHT22;26371;56.992;23.912;2022-11-25T07:47:58;0.20;99.90
40153;DHT22;26371;56.992;23.912;2022-11-25T07:50:27;0.20;99.90
40153;DHT22;26371;56.992;23.912;2022-11-25T07:52:58;0.20;99.90
40153;DHT22;26371;56.992;23.912;2022-11-25T07:55:26;0.20;99.90
40153;DHT22;26371;56.992;23.912;2022-11-25T07:57:55;0.20;99.90
40153;DHT22;26371;56.992;23.912;2022-11-25T08:00:23;0.20;99.90
40153;DHT22;26371;56.992;23.912;2022-11-25T08:02:52;0.20;99.90
40153;DHT22;26371;56.992;23.912;2022-11-25T08:05:21;0.20;99.90
40153;DHT22;26371;56.992;23.912;2022-11-25T08:07:49;0.20;99.90
40153;DHT22;26371;56.992;23.912;2022-11-25T08:10:19;0.20;99.90
40153;DHT22;26371;56.992;23.912;2022-11-25T08:12:48;0.20;99.90
40153;DHT22;26371;56.992;23.912;2022-11-25T08:15:17;0.20;99.90
40153;DHT22;26371;56.992;23.912;2022-11-25T08:17:45;0.20;99.90
40153;DHT22;26371;56.992;23.912;2022-11-25T08:20:16;0.20;99.90
40153;DHT22;26371;56.992;23.912;2022-11-25T08:22:44;0.20;99.90
40153;DHT22;26371;56.992;23.912;2022-11-25T08:25:13;0.20;99.90
40153;DHT22;26371;56.992;23.912;2022-11-25T08:27:43;0.20;99.90
40153;DHT22;26371;56.992;23.912;2022-11-25T08:30:12;0.20;99.90
40153;DHT22;26371;56.992;23.912;2022-11-25T08:32:41;0.30;99.90
40153;DHT22;26371;56.992;23.912;2022-11-25T08:35:09;0.30;99.90
40153;DHT22;26371;56.992;23.912;2022-11-25T08:37:38;0.30;99.90
40153;DHT22;26371;56.992;23.912;2022-11-25T08:40:07;0.40;99.90
40153;DHT22;26371;56.992;23.912;2022-11-25T08:42:36;0.40;99.90
40153;DHT22;26371;56.992;23.912;2022-11-25T08:45:08;0.40;99.90
40153;DHT22;26371;56.992;23.912;2022-11-25T08:47:37;0.40;99.90
40153;DHT22;26371;56.992;23.912;2022-11-25T08:50:07;0.40;99.90
40153;DHT22;26371;56.992;23.912;2022-11-25T08:52:36;0.30;99.90
40153;DHT22;26371;56.992;23.912;2022-11-25T08:55:07;0.30;99.90
40153;DHT22;26371;56.992;23.912;2022-11-25T08:57:36;0.30;99.90
40153;DHT22;26371;56.992;23.912;2022-11-25T09:00:07;0.30;99.90
40153;DHT22;26371;56.992;23.912;2022-11-25T09:02:36;0.30;99.90
40153;DHT22;26371;56.992;23.912;2022-11-25T09:05:05;0.30;99.90
40153;DHT22;26371;56.992;23.912;2022-11-25T09:07:33;0.30;99.90
40153;DHT22;26371;56.992;23.912;2022-11-25T09:10:02;0.30;99.90
40153;DHT22;26371;56.992;23.912;2022-11-25T09:12:31;0.30;99.90
40153;DHT22;26371;56.992;23.912;2022-11-25T09:15:00;0.30;99.90
40153;DHT22;26371;56.992;23.912;2022-11-25T09:17:30;0.30;99.90
40153;DHT22;26371;56.992;23.912;2022-11-25T09:20:00;0.30;99.90
40153;DHT22;26371;56.992;23.912;2022-11-25T09:22:31;0.40;99.90
40153;DHT22;26371;56.992;23.912;2022-11-25T09:25:00;0.40;99.90
40153;DHT22;26371;56.992;23.912;2022-11-25T09:27:29;0.40;99.90
40153;DHT22;26371;56.992;23.912;2022-11-25T09:29:58;0.30;99.90
40153;DHT22;26371;56.992;23.912;2022-11-25T09:32:27;0.30;99.90
40153;DHT22;26371;56.992;23.912;2022-11-25T09:34:57;0.30;99.90
40153;DHT22;26371;56.992;23.912;2022-11-25T09:37:26;0.30;99.90
40153;DHT22;26371;56.992;23.912;2022-11-25T09:39:54;0.30;99.90
40153;DHT22;26371;56.992;23.912;2022-11-25T09:42:33;0.30;99.90
40153;DHT22;26371;56.992;23.912;2022-11-25T09:45:27;0.30;99.90
40153;DHT22;26371;56.992;23.912;2022-11-25T09:48:31;0.30;99.90
40153;DHT22;26371;56.992;23.912;2022-11-25T09:51:10;0.30;99.90
40153;DHT22;26371;56.992;23.912;2022-11-25T09:53:44;0.30;99.90
40153;DHT22;26371;56.992;23.912;2022-11-25T09:56:23;0.30;99.90
40153;DHT22;26371;56.992;23.912;2022-11-25T09:58:55;0.40;99.90
40153;DHT22;26371;56.992;23.912;2022-11-25T10:01:29;0.40;99.90
40153;DHT22;26371;56.992;23.912;2022-11-25T10:04:02;0.40;99.90
40153;DHT22;26371;56.992;23.912;2022-11-25T10:06:35;0.50;99.90
40153;DHT22;26371;56.992;23.912;2022-11-25T10:09:11;0.50;99.90
40153;DHT22;26371;56.992;23.912;2022-11-25T10:11:48;0.50;99.90
40153;DHT22;26371;56.992;23.912;2022-11-25T10:14:25;0.50;99.90
40153;DHT22;26371;56.992;23.912;2022-11-25T10:17:00;0.50;99.90
40153;DHT22;26371;56.992;23.912;2022-11-25T10:19:38;0.50;99.90
40153;DHT22;26371;56.992;23.912;2022-11-25T10:22:18;0.50;99.90
40153;DHT22;26371;56.992;23.912;2022-11-25T10:24:50;0.50;99.90
40153;DHT22;26371;56.992;23.912;2022-11-25T10:27:24;0.60;99.90
40153;DHT22;26371;56.992;23.912;2022-11-25T10:30:02;0.60;99.90
40153;DHT22;26371;56.992;23.912;2022-11-25T10:32:38;0.60;99.90
40153;DHT22;26371;56.992;23.912;2022-11-25T10:35:17;0.70;99.90
40153;DHT22;26371;56.992;23.912;2022-11-25T10:37:50;0.70;99.90
40153;DHT22;26371;56.992;23.912;2022-11-25T10:40:21;0.70;99.90
40153;DHT22;26371;56.992;23.912;2022-11-25T10:42:50;0.80;99.90
40153;DHT22;26371;56.992;23.912;2022-11-25T10:45:21;0.80;99.90
40153;DHT22;26371;56.992;23.912;2022-11-25T10:48:06;0.90;99.90
40153;DHT22;26371;56.992;23.912;2022-11-25T10:50:43;0.90;99.90
40153;DHT22;26371;56.992;23.912;2022-11-25T10:53:23;1.00;99.90
40153;DHT22;26371;56.992;23.912;2022-11-25T10:55:59;1.00;99.90
40153;DHT22;26371;56.992;23.912;2022-11-25T10:58:34;1.10;99.90
40153;DHT22;26371;56.992;23.912;2022-11-25T11:01:09;1.10;99.90
40153;DHT22;26371;56.992;23.912;2022-11-25T11:03:42;1.10;99.90
40153;DHT22;26371;56.992;23.912;2022-11-25T11:06:31;1.10;99.90
40153;DHT22;26371;56.992;23.912;2022-11-25T11:11:32;1.40;99.90
40153;DHT22;26371;56.992;23.912;2022-11-25T11:14:12;1.30;99.90
40153;DHT22;26371;56.992;23.912;2022-11-25T11:16:41;1.30;99.90
40153;DHT22;26371;56.992;23.912;2022-11-25T11:19:20;1.20;99.90
40153;DHT22;26371;56.992;23.912;2022-11-25T11:21:50;1.30;99.90
40153;DHT22;26371;56.992;23.912;2022-11-25T11:24:29;1.20;99.90
40153;DHT22;26371;56.992;23.912;2022-11-25T11:27:02;1.20;99.90
40153;DHT22;26371;56.992;23.912;2022-11-25T11:29:32;1.20;99.90
40153;DHT22;26371;56.992;23.912;2022-11-25T11:32:02;1.10;99.90
40153;DHT22;26371;56.992;23.912;2022-11-25T11:34:56;1.00;99.90
40153;DHT22;26371;56.992;23.912;2022-11-25T11:37:38;1.00;99.90
40153;DHT22;26371;56.992;23.912;2022-11-25T11:40:30;1.00;99.90
40153;DHT22;26371;56.992;23.912;2022-11-25T11:43:20;1.00;99.90
40153;DHT22;26371;56.992;23.912;2022-11-25T11:46:04;0.90;99.90
40153;DHT22;26371;56.992;23.912;2022-11-25T11:48:39;0.90;99.90
40153;DHT22;26371;56.992;23.912;2022-11-25T11:51:18;0.90;99.90
40153;DHT22;26371;56.992;23.912;2022-11-25T11:53:57;0.90;99.90
40153;DHT22;26371;56.992;23.912;2022-11-25T11:56:36;0.90;99.90
40153;DHT22;26371;56.992;23.912;2022-11-25T11:59:33;0.90;99.90
40153;DHT22;26371;56.992;23.912;2022-11-25T12:02:34;0.90;99.90
40153;DHT22;26371;56.992;23.912;2022-11-25T12:05:14;0.90;99.90
40153;DHT22;26371;56.992;23.912;2022-11-25T12:07:53;0.80;99.90
40153;DHT22;26371;56.992;23.912;2022-11-25T12:10:29;0.80;99.90
40153;DHT22;26371;56.992;23.912;2022-11-25T12:13:07;0.80;99.90
40153;DHT22;26371;56.992;23.912;2022-11-25T12:15:44;0.70;99.90
40153;DHT22;26371;56.992;23.912;2022-11-25T12:18:23;0.70;99.90
40153;DHT22;26371;56.992;23.912;2022-11-25T12:21:00;0.70;99.90
40153;DHT22;26371;56.992;23.912;2022-11-25T12:23:40;0.70;99.90
40153;DHT22;26371;56.992;23.912;2022-11-25T12:26:16;0.70;99.90
40153;DHT22;26371;56.992;23.912;2022-11-25T12:28:52;0.70;99.90
40153;DHT22;26371;56.992;23.912;2022-11-25T12:31:25;0.70;99.90
40153;DHT22;26371;56.992;23.912;2022-11-25T12:34:02;0.70;99.90
40153;DHT22;26371;56.992;23.912;2022-11-25T12:36:35;0.80;99.90
40153;DHT22;26371;56.992;23.912;2022-11-25T12:39:10;0.80;99.90
40153;DHT22;26371;56.992;23.912;2022-11-25T12:41:42;0.80;99.90
40153;DHT22;26371;56.992;23.912;2022-11-25T12:44:16;0.80;99.90
40153;DHT22;26371;56.992;23.912;2022-11-25T12:46:48;0.80;99.90
40153;DHT22;26371;56.992;23.912;2022-11-25T12:49:19;0.80;99.90
40153;DHT22;26371;56.992;23.912;2022-11-25T12:52:19;0.80;99.90
40153;DHT22;26371;56.992;23.912;2022-11-25T12:55:08;0.80;99.90
40153;DHT22;26371;56.992;23.912;2022-11-25T13:01:18;0.80;99.90
40153;DHT22;26371;56.992;23.912;2022-11-25T13:04:22;0.80;99.90
40153;DHT22;26371;56.992;23.912;2022-11-25T13:07:17;0.80;99.90
40153;DHT22;26371;56.992;23.912;2022-11-25T13:12:58;0.70;99.90
40153;DHT22;26371;56.992;23.912;2022-11-25T13:15:31;0.70;99.90
40153;DHT22;26371;56.992;23.912;2022-11-25T13:18:10;0.70;99.90
40153;DHT22;26371;56.992;23.912;2022-11-25T13:20:45;0.70;99.90
40153;DHT22;26371;56.992;23.912;2022-11-25T13:23:23;0.60;99.90
40153;DHT22;26371;56.992;23.912;2022-11-25T13:31:57;0.60;99.90
40153;DHT22;26371;56.992;23.912;2022-11-25T13:34:28;0.60;99.90
40153;DHT22;26371;56.992;23.912;2022-11-25T13:36:58;0.60;99.90
40153;DHT22;26371;56.992;23.912;2022-11-25T13:39:29;0.60;99.90
40153;DHT22;26371;56.992;23.912;2022-11-25T13:42:01;0.60;99.90
40153;DHT22;26371;56.992;23.912;2022-11-25T13:44:32;0.60;99.90
40153;DHT22;26371;56.992;23.912;2022-11-25T13:47:21;0.60;99.90
40153;DHT22;26371;56.992;23.912;2022-11-25T13:49:53;0.60;99.90
40153;DHT22;26371;56.992;23.912;2022-11-25T13:52:35;0.60;99.90
40153;DHT22;26371;56.992;23.912;2022-11-25T13:55:19;0.60;99.90
40153;DHT22;26371;56.992;23.912;2022-11-25T13:58:01;0.60;99.90
40153;DHT22;26371;56.992;23.912;2022-11-25T14:01:10;0.60;99.90
40153;DHT22;26371;56.992;23.912;2022-11-25T14:03:56;0.60;99.90
40153;DHT22;26371;56.992;23.912;2022-11-25T14:06:42;0.60;99.90
40153;DHT22;26371;56.992;23.912;2022-11-25T14:09:35;0.60;99.90
40153;DHT22;26371;56.992;23.912;2022-11-25T14:12:41;0.60;99.90
40153;DHT22;26371;56.992;23.912;2022-11-25T14:15:24;0.60;99.90
40153;DHT22;26371;56.992;23.912;2022-11-25T14:18:19;0.60;99.90
40153;DHT22;26371;56.992;23.912;2022-11-25T14:21:19;0.60;99.90
40153;DHT22;26371;56.992;23.912;2022-11-25T14:24:05;0.50;99.90
40153;DHT22;26371;56.992;23.912;2022-11-25T14:26:38;0.50;99.90
40153;DHT22;26371;56.992;23.912;2022-11-25T14:29:19;0.50;99.90
40153;DHT22;26371;56.992;23.912;2022-11-25T14:31:52;0.50;99.90
40153;DHT22;26371;56.992;23.912;2022-11-25T14:34:25;0.50;99.90
40153;DHT22;26371;56.992;23.912;2022-11-25T14:37:00;0.60;99.90
40153;DHT22;26371;56.992;23.912;2022-11-25T14:39:36;0.60;99.90
40153;DHT22;26371;56.992;23.912;2022-11-25T14:42:08;0.60;99.90
40153;DHT22;26371;56.992;23.912;2022-11-25T14:44:43;0.60;99.90
40153;DHT22;26371;56.992;23.912;2022-11-25T14:47:12;0.60;99.90
40153;DHT22;26371;56.992;23.912;2022-11-25T14:49:46;0.50;99.90
40153;DHT22;26371;56.992;23.912;2022-11-25T14:52:35;0.50;99.90
40153;DHT22;26371;56.992;23.912;2022-11-25T14:55:06;0.50;99.90
40153;DHT22;26371;56.992;23.912;2022-11-25T14:57:37;0.50;99.90
40153;DHT22;26371;56.992;23.912;2022-11-25T15:00:09;0.50;99.90
40153;DHT22;26371;56.992;23.912;2022-11-25T15:02:41;0.50;99.90
40153;DHT22;26371;56.992;23.912;2022-11-25T15:05:21;0.50;99.90
40153;DHT22;26371;56.992;23.912;2022-11-25T15:07:57;0.50;99.90
40153;DHT22;26371;56.992;23.912;2022-11-25T15:10:40;0.50;99.90
40153;DHT22;26371;56.992;23.912;2022-11-25T15:13:22;0.50;99.90
40153;DHT22;26371;56.992;23.912;2022-11-25T15:15:53;0.50;99.90
40153;DHT22;26371;56.992;23.912;2022-11-25T15:18:24;0.50;99.90
40153;DHT22;26371;56.992;23.912;2022-11-25T15:20:56;0.50;99.90
40153;DHT22;26371;56.992;23.912;2022-11-25T15:23:28;0.50;99.90
40153;DHT22;26371;56.992;23.912;2022-11-25T15:26:04;0.40;99.90
40153;DHT22;26371;56.992;23.912;2022-11-25T15:28:41;0.40;99.90
40153;DHT22;26371;56.992;23.912;2022-11-25T15:31:16;0.50;99.90
40153;DHT22;26371;56.992;23.912;2022-11-25T15:33:55;0.50;99.90
40153;DHT22;26371;56.992;23.912;2022-11-25T15:36:24;0.50;99.90
40153;DHT22;26371;56.992;23.912;2022-11-25T15:38:53;0.50;99.90
40153;DHT22;26371;56.992;23.912;2022-11-25T15:41:31;0.50;99.90
40153;DHT22;26371;56.992;23.912;2022-11-25T15:44:02;0.50;99.90
40153;DHT22;26371;56.992;23.912;2022-11-25T15:46:33;0.50;99.90
40153;DHT22;26371;56.992;23.912;2022-11-25T15:49:05;0.50;99.90
40153;DHT22;26371;56.992;23.912;2022-11-25T15:51:38;0.50;99.90
40153;DHT22;26371;56.992;23.912;2022-11-25T15:54:17;0.50;99.90
40153;DHT22;26371;56.992;23.912;2022-11-25T16:00:41;0.40;99.90
40153;DHT22;26371;56.992;23.912;2022-11-25T16:03:28;0.40;99.90
40153;DHT22;26371;56.992;23.912;2022-11-25T16:05:59;0.30;99.90
40153;DHT22;26371;56.992;23.912;2022-11-25T16:08:33;0.40;99.90
40153;DHT22;26371;56.992;23.912;2022-11-25T16:11:13;0.30;99.90
40153;DHT22;26371;56.992;23.912;2022-11-25T16:13:46;0.30;99.90
40153;DHT22;26371;56.992;23.912;2022-11-25T16:16:24;0.30;99.90
40153;DHT22;26371;56.992;23.912;2022-11-25T16:21:53;0.30;99.90
40153;DHT22;26371;56.992;23.912;2022-11-25T16:24:37;0.30;99.90
40153;DHT22;26371;56.992;23.912;2022-11-25T16:27:15;0.30;99.90
40153;DHT22;26371;56.992;23.912;2022-11-25T16:29:50;0.30;99.90
40153;DHT22;26371;56.992;23.912;2022-11-25T16:32:22;0.30;99.90
40153;DHT22;26371;56.992;23.912;2022-11-25T16:34:53;0.30;99.90